createdAt,value
2019-02-24T00:00:01.640Z,68.80
2019-02-24T00:02:49.648Z,68.70
2019-02-24T00:05:37.797Z,68.70
2019-02-24T00:08:25.651Z,68.70
2019-02-24T00:11:13.546Z,68.80
2019-02-24T00:14:02.106Z,68.30
2019-02-24T00:16:50.244Z,68.90
2019-02-24T00:19:38.567Z,69.00
2019-02-24T00:22:27.169Z,68.70
2019-02-24T00:25:14.993Z,68.60
2019-02-24T00:28:07.269Z,68.90
2019-02-24T00:30:53.155Z,69.00
2019-02-24T00:33:41.359Z,68.90
2019-02-24T00:36:29.640Z,69.00
2019-02-24T00:39:17.492Z,69.10
2019-02-24T00:42:05.969Z,68.90
2019-02-24T00:44:54.037Z,69.90
2019-02-24T00:47:42.315Z,68.90
2019-02-24T00:50:30.661Z,68.90
2019-02-24T00:53:18.736Z,68.90
2019-02-24T00:56:06.883Z,68.90
2019-02-24T00:58:55.042Z,69.60
2019-02-24T01:01:43.614Z,69.00
2019-02-24T01:04:31.767Z,68.70
2019-02-24T01:07:19.775Z,68.90
2019-02-24T01:10:07.840Z,68.80
2019-02-24T01:12:55.934Z,68.90
2019-02-24T01:15:44.018Z,69.10
2019-02-24T01:18:32.256Z,69.00
2019-02-24T01:21:20.315Z,68.90
2019-02-24T01:24:08.308Z,68.90
2019-02-24T01:26:56.112Z,68.80
2019-02-24T01:29:44.535Z,68.80
2019-02-24T01:32:32.907Z,68.90
2019-02-24T01:35:20.704Z,68.90
2019-02-24T01:38:08.748Z,69.00
2019-02-24T01:40:56.936Z,68.90
2019-02-24T01:43:45.234Z,68.90
2019-02-24T01:46:32.951Z,68.80
2019-02-24T01:49:21.473Z,68.90
2019-02-24T01:52:09.329Z,68.70
2019-02-24T01:54:57.886Z,68.60
2019-02-24T01:57:45.909Z,68.70
2019-02-24T02:00:34.433Z,68.20
2019-02-24T02:03:23.005Z,68.50
2019-02-24T02:06:10.887Z,68.40
2019-02-24T02:08:59.028Z,68.40
2019-02-24T02:11:47.133Z,68.40
2019-02-24T02:14:35.223Z,68.40
2019-02-24T02:17:23.017Z,68.60
2019-02-24T02:20:10.991Z,68.70
2019-02-24T02:22:59.163Z,68.60
2019-02-24T02:25:47.076Z,68.90
2019-02-24T02:28:43.581Z,68.90
2019-02-24T02:31:25.063Z,68.90
2019-02-24T02:34:13.036Z,69.00
2019-02-24T02:37:00.869Z,68.90
2019-02-24T02:39:49.273Z,69.00
2019-02-24T02:42:37.207Z,68.90
2019-02-24T02:45:25.293Z,68.80
2019-02-24T02:48:13.228Z,68.90
2019-02-24T02:51:01.816Z,68.80
2019-02-24T02:53:49.861Z,68.80
2019-02-24T02:56:37.930Z,68.80
2019-02-24T02:59:25.796Z,68.60
2019-02-24T03:02:23.824Z,68.70
2019-02-24T03:05:03.568Z,68.80
2019-02-24T03:07:59.067Z,68.90
2019-02-24T03:10:47.628Z,68.60
2019-02-24T03:13:35.649Z,68.50
2019-02-24T03:16:26.699Z,68.50
2019-02-24T03:19:15.045Z,68.40
2019-02-24T03:22:03.403Z,68.50
2019-02-24T03:24:51.318Z,68.60
2019-02-24T03:27:39.175Z,68.40
2019-02-24T03:30:27.519Z,68.60
2019-02-24T03:33:15.778Z,68.90
2019-02-24T03:36:03.883Z,69.60
2019-02-24T03:38:52.002Z,68.70
2019-02-24T03:41:40.394Z,68.70
2019-02-24T03:44:28.473Z,68.60
2019-02-24T03:47:16.576Z,68.40
2019-02-24T03:50:04.798Z,68.70
2019-02-24T03:52:52.840Z,68.80
2019-02-24T03:55:41.310Z,68.80
2019-02-24T03:58:29.453Z,68.70
2019-02-24T04:01:17.451Z,68.60
2019-02-24T04:04:05.363Z,68.60
2019-02-24T04:06:53.745Z,68.70
2019-02-24T04:09:42.472Z,68.80
2019-02-24T04:12:30.638Z,68.70
2019-02-24T04:15:18.475Z,68.70
2019-02-24T04:18:06.771Z,68.60
2019-02-24T04:20:54.512Z,68.40
2019-02-24T04:23:43.213Z,68.70
2019-02-24T04:26:30.958Z,68.40
2019-02-24T04:29:24.758Z,68.40
2019-02-24T04:32:08.802Z,68.50
2019-02-24T04:34:56.913Z,68.60
2019-02-24T04:37:44.660Z,68.60
2019-02-24T04:40:32.508Z,68.60
2019-02-24T04:43:20.561Z,68.50
2019-02-24T04:46:08.489Z,68.50
2019-02-24T04:48:56.497Z,68.60
2019-02-24T04:51:44.569Z,68.50
2019-02-24T04:54:32.681Z,68.50
2019-02-24T04:57:20.587Z,68.50
2019-02-24T05:02:55.909Z,69.00
2019-02-24T05:05:44.680Z,68.60
2019-02-24T05:08:32.434Z,68.60
2019-02-24T05:11:20.591Z,68.50
2019-02-24T05:14:08.831Z,68.50
2019-02-24T05:16:57.595Z,68.50
2019-02-24T05:19:45.580Z,68.50
2019-02-24T05:22:33.740Z,68.20
2019-02-24T05:25:22.016Z,68.50
2019-02-24T05:28:10.035Z,68.60
2019-02-24T05:30:58.378Z,69.30
2019-02-24T05:33:46.608Z,68.60
2019-02-24T05:36:34.656Z,68.70
2019-02-24T05:39:22.865Z,68.60
2019-02-24T05:42:10.641Z,68.50
2019-02-24T05:44:58.554Z,68.50
2019-02-24T05:47:46.534Z,68.40
2019-02-24T05:50:34.477Z,68.30
2019-02-24T05:53:22.613Z,68.50
2019-02-24T05:56:11.040Z,68.30
2019-02-24T05:58:59.135Z,68.50
2019-02-24T06:01:46.963Z,68.50
2019-02-24T06:04:35.335Z,67.80
2019-02-24T06:07:23.251Z,68.50
2019-02-24T06:10:11.093Z,68.40
2019-02-24T06:12:59.263Z,68.60
2019-02-24T06:15:47.467Z,68.60
2019-02-24T06:18:35.249Z,68.60
2019-02-24T06:21:23.344Z,68.60
2019-02-24T06:24:11.458Z,68.70
2019-02-24T06:26:59.694Z,68.70
2019-02-24T06:29:47.837Z,68.70
2019-02-24T06:38:10.440Z,67.50
2019-02-24T06:40:59.873Z,68.40
2019-02-24T06:43:48.523Z,68.50
2019-02-24T06:46:36.905Z,68.50
2019-02-24T06:49:24.960Z,68.50
2019-02-24T06:52:12.977Z,68.80
2019-02-24T06:55:01.042Z,68.80
2019-02-24T06:57:49.509Z,68.30
2019-02-24T07:00:37.519Z,68.90
2019-02-24T07:03:25.721Z,68.70
2019-02-24T07:06:13.687Z,69.00
2019-02-24T07:09:01.926Z,68.90
2019-02-24T07:11:50.870Z,68.70
2019-02-24T07:14:38.617Z,68.90
2019-02-24T07:17:26.381Z,69.10
2019-02-24T07:20:14.438Z,69.10
2019-02-24T07:23:02.281Z,69.00
2019-02-24T07:25:50.155Z,69.10
2019-02-24T07:28:38.573Z,69.20
2019-02-24T07:31:27.362Z,70.20
2019-02-24T07:40:06.739Z,68.70
2019-02-24T07:46:00.440Z,69.50
2019-02-24T07:48:48.915Z,69.50
2019-02-24T07:51:36.779Z,69.40
2019-02-24T07:54:25.269Z,69.50
2019-02-24T07:57:18.615Z,69.60
2019-02-24T08:03:28.717Z,69.70
2019-02-24T08:06:17.541Z,69.70
2019-02-24T08:09:06.183Z,69.60
2019-02-24T08:11:53.967Z,69.60
2019-02-24T08:14:42.367Z,69.30
2019-02-24T08:17:30.161Z,69.70
2019-02-24T08:20:18.222Z,69.60
2019-02-24T08:23:06.862Z,69.60
2019-02-24T08:25:55.349Z,69.70
2019-02-24T08:28:43.905Z,69.80
2019-02-24T08:31:32.732Z,69.90
2019-02-24T08:34:21.615Z,69.80
2019-02-24T08:37:09.804Z,70.00
2019-02-24T08:39:58.351Z,69.90
2019-02-24T08:42:46.731Z,69.20
2019-02-24T08:45:35.214Z,69.60
2019-02-24T08:48:23.430Z,70.10
2019-02-24T08:51:11.860Z,70.00
2019-02-24T08:54:00.320Z,70.10
2019-02-24T08:56:48.555Z,70.10
2019-02-24T08:59:38.262Z,70.20
2019-02-24T09:02:26.735Z,70.20
2019-02-24T09:05:15.313Z,70.30
2019-02-24T09:08:03.677Z,70.40
2019-02-24T09:10:51.826Z,70.00
2019-02-24T09:13:39.908Z,70.40
2019-02-24T09:16:27.804Z,71.10
2019-02-24T09:19:16.142Z,70.50
2019-02-24T09:22:04.201Z,70.70
2019-02-24T09:24:52.227Z,70.80
2019-02-24T09:27:40.224Z,70.90
2019-02-24T09:30:27.979Z,70.80
2019-02-24T09:33:16.244Z,70.70
2019-02-24T09:36:04.093Z,70.60
2019-02-24T09:38:52.140Z,70.30
2019-02-24T09:41:40.142Z,69.90
2019-02-24T09:44:28.531Z,70.10
2019-02-24T09:47:16.904Z,70.20
2019-02-24T09:50:05.403Z,70.00
2019-02-24T09:52:53.418Z,69.70
2019-02-24T09:55:41.881Z,69.90
2019-02-24T09:58:29.918Z,69.50
2019-02-24T10:01:17.908Z,69.20
2019-02-24T10:04:06.552Z,68.80
2019-02-24T10:06:54.827Z,68.60
2019-02-24T10:09:43.134Z,68.40
2019-02-24T10:12:31.045Z,68.30
2019-02-24T10:15:19.475Z,68.50
2019-02-24T10:18:07.306Z,68.30
2019-02-24T10:20:55.257Z,69.00
2019-02-24T10:23:43.783Z,68.00
2019-02-24T10:26:31.970Z,68.10
2019-02-24T10:29:20.161Z,68.00
2019-02-24T10:32:08.563Z,68.20
2019-02-24T10:34:57.166Z,68.40
2019-02-24T10:37:45.155Z,69.30
2019-02-24T10:40:33.627Z,68.60
2019-02-24T10:43:21.983Z,69.50
2019-02-24T10:46:11.452Z,68.60
2019-02-24T10:49:03.441Z,67.10
2019-02-24T10:51:48.809Z,67.00
2019-02-24T10:54:36.830Z,66.90
2019-02-24T10:57:26.127Z,67.30
2019-02-24T11:00:14.546Z,66.50
2019-02-24T11:03:03.179Z,66.60
2019-02-24T11:05:51.358Z,66.50
2019-02-24T11:08:39.286Z,66.70
2019-02-24T11:11:27.282Z,66.90
2019-02-24T11:14:15.901Z,67.00
2019-02-24T11:17:04.316Z,66.80
2019-02-24T11:19:52.846Z,66.90
2019-02-24T11:22:41.971Z,66.80
2019-02-24T11:25:29.992Z,66.60
2019-02-24T11:28:17.913Z,66.50
2019-02-24T11:31:06.057Z,66.00
2019-02-24T11:33:54.096Z,66.10
2019-02-24T11:36:43.745Z,66.20
2019-02-24T11:39:32.289Z,66.20
2019-02-24T11:42:20.784Z,65.70
2019-02-24T11:45:08.820Z,65.60
2019-02-24T11:47:57.174Z,65.80
2019-02-24T11:50:45.073Z,65.80
2019-02-24T11:53:33.550Z,65.20
2019-02-24T11:56:21.559Z,65.10
2019-02-24T11:59:09.446Z,65.20
2019-02-24T12:01:58.255Z,65.00
2019-02-24T12:04:46.081Z,65.20
2019-02-24T12:07:34.472Z,65.00
2019-02-24T12:10:22.663Z,65.20
2019-02-24T12:13:10.704Z,65.20
2019-02-24T12:16:00.081Z,65.20
2019-02-24T12:18:48.784Z,65.10
2019-02-24T12:21:36.651Z,64.80
2019-02-24T12:24:24.864Z,65.10
2019-02-24T12:27:12.981Z,65.20
2019-02-24T12:30:01.422Z,65.10
2019-02-24T12:32:49.490Z,65.30
2019-02-24T12:35:39.026Z,65.50
2019-02-24T12:38:29.745Z,66.40
2019-02-24T12:41:18.239Z,65.80
2019-02-24T12:44:06.390Z,65.60
2019-02-24T12:46:55.088Z,65.50
2019-02-24T12:49:42.991Z,65.60
2019-02-24T12:52:31.047Z,65.30
2019-02-24T12:55:19.503Z,65.20
2019-02-24T12:58:08.581Z,65.40
2019-02-24T13:00:56.395Z,65.20
2019-02-24T13:03:44.905Z,65.00
2019-02-24T13:06:33.659Z,64.80
2019-02-24T13:09:21.923Z,65.00
2019-02-24T13:12:11.265Z,65.10
2019-02-24T13:14:59.771Z,65.20
2019-02-24T13:17:48.429Z,65.40
2019-02-24T13:20:36.493Z,65.20
2019-02-24T13:26:11.928Z,65.40
2019-02-24T13:28:59.823Z,65.10
2019-02-24T13:31:48.180Z,65.00
2019-02-24T13:34:36.640Z,64.80
2019-02-24T13:37:24.638Z,64.80
2019-02-24T13:40:12.881Z,65.10
2019-02-24T13:43:00.774Z,65.00
2019-02-24T13:45:49.470Z,65.00
2019-02-24T13:48:37.510Z,65.00
2019-02-24T13:51:25.380Z,64.90
2019-02-24T13:54:13.402Z,64.90
2019-02-24T13:57:02.103Z,65.00
2019-02-24T14:02:49.219Z,64.80
2019-02-24T14:05:37.586Z,64.80
2019-02-24T14:08:25.607Z,64.90
2019-02-24T14:11:14.374Z,64.90
2019-02-24T14:14:02.949Z,65.10
2019-02-24T14:16:51.653Z,64.70
2019-02-24T14:19:39.473Z,64.50
2019-02-24T14:22:27.421Z,64.30
2019-02-24T14:25:16.138Z,64.30
2019-02-24T14:28:04.975Z,64.30
2019-02-24T14:30:53.693Z,64.50
2019-02-24T14:33:41.600Z,64.60
2019-02-24T14:36:30.187Z,64.30
2019-02-24T14:39:18.699Z,64.10
2019-02-24T14:42:07.414Z,64.30
2019-02-24T14:44:56.205Z,64.10
2019-02-24T14:47:44.657Z,64.10
2019-02-24T14:50:33.293Z,63.50
2019-02-24T14:53:22.113Z,63.40
2019-02-24T14:56:10.533Z,63.40
2019-02-24T14:58:58.250Z,62.90
2019-02-24T15:01:46.376Z,62.70
2019-02-24T15:04:34.452Z,63.10
2019-02-24T15:07:22.520Z,63.00
2019-02-24T15:10:10.429Z,62.80
2019-02-24T15:12:58.943Z,62.50
2019-02-24T15:15:47.351Z,62.20
2019-02-24T15:18:35.599Z,62.40
2019-02-24T15:21:23.614Z,63.40
2019-02-24T15:26:57.642Z,62.70
2019-02-24T15:29:45.989Z,62.80
2019-02-24T15:32:34.624Z,62.50
2019-02-24T15:35:23.210Z,62.50
2019-02-24T15:38:11.750Z,62.50
2019-02-24T15:41:00.591Z,63.60
2019-02-24T15:43:48.826Z,63.70
2019-02-24T15:46:37.022Z,63.70
2019-02-24T15:49:24.992Z,63.80
2019-02-24T15:52:12.829Z,63.80
2019-02-24T15:55:02.993Z,63.90
2019-02-24T15:57:51.307Z,64.00
2019-02-24T16:00:39.820Z,63.90
2019-02-24T16:03:28.365Z,64.50
2019-02-24T16:06:16.474Z,63.90
2019-02-24T16:09:04.498Z,64.00
2019-02-24T16:11:52.950Z,64.00
2019-02-24T16:14:41.757Z,64.70
2019-02-24T16:17:30.126Z,64.20
2019-02-24T16:20:18.540Z,64.30
2019-02-24T16:23:06.650Z,64.50
2019-02-24T16:25:54.501Z,64.70
2019-02-24T16:28:42.272Z,64.80
2019-02-24T16:31:30.987Z,64.90
2019-02-24T16:34:18.932Z,65.00
2019-02-24T16:37:08.160Z,65.10
2019-02-24T16:39:56.457Z,65.10
2019-02-24T16:42:44.481Z,65.90
2019-02-24T16:45:32.459Z,65.30
2019-02-24T16:48:20.202Z,65.30
2019-02-24T16:51:08.503Z,65.40
2019-02-24T16:53:56.308Z,65.50
2019-02-24T16:56:44.274Z,65.50
2019-02-24T16:59:32.211Z,65.60
2019-02-24T17:02:23.027Z,65.60
2019-02-24T17:05:10.680Z,65.60
2019-02-24T17:07:58.929Z,65.70
2019-02-24T17:10:47.652Z,65.80
2019-02-24T17:13:35.962Z,66.00
2019-02-24T17:16:24.520Z,65.80
2019-02-24T17:19:12.340Z,65.90
2019-02-24T17:22:00.273Z,66.00
2019-02-24T17:24:48.709Z,67.10
2019-02-24T17:27:36.578Z,65.80
2019-02-24T17:30:24.577Z,66.10
2019-02-24T17:33:13.130Z,66.50
2019-02-24T17:36:01.520Z,67.00
2019-02-24T17:38:50.612Z,66.20
2019-02-24T17:41:38.857Z,66.30
2019-02-24T17:44:26.658Z,66.30
2019-02-24T17:47:14.577Z,66.50
2019-02-24T17:50:02.841Z,66.40
2019-02-24T17:52:50.952Z,66.40
2019-02-24T17:55:38.844Z,66.60
2019-02-24T17:58:26.990Z,66.80
2019-02-24T18:01:15.887Z,67.10
2019-02-24T18:04:04.170Z,66.80
2019-02-24T18:06:52.648Z,66.80
2019-02-24T18:09:41.146Z,66.90
2019-02-24T18:12:29.624Z,67.50
2019-02-24T18:15:17.977Z,67.00
2019-02-24T18:18:06.855Z,67.00
2019-02-24T18:20:54.890Z,67.10
2019-02-24T18:23:42.783Z,67.90
2019-02-24T18:26:31.086Z,67.20
2019-02-24T18:29:19.780Z,67.30
2019-02-24T18:32:07.976Z,67.40
2019-02-24T18:34:56.332Z,67.00
2019-02-24T18:37:45.020Z,67.30
2019-02-24T18:43:19.866Z,67.70
2019-02-24T18:46:08.155Z,67.50
2019-02-24T18:48:56.425Z,67.60
2019-02-24T18:51:44.918Z,67.50
2019-02-24T18:54:34.998Z,67.40
2019-02-24T18:57:23.104Z,67.50
2019-02-24T19:00:11.728Z,67.50
2019-02-24T19:03:01.453Z,67.50
2019-02-24T19:05:49.772Z,67.70
2019-02-24T19:08:37.723Z,67.80
2019-02-24T19:11:25.977Z,67.90
2019-02-24T19:14:14.495Z,67.90
2019-02-24T19:17:02.375Z,67.90
2019-02-24T19:19:50.907Z,67.80
2019-02-24T19:22:38.940Z,67.80
2019-02-24T19:25:27.336Z,67.80
2019-02-24T19:28:16.237Z,67.90
2019-02-24T19:31:04.225Z,69.00
2019-02-24T19:33:53.022Z,67.90
2019-02-24T19:36:41.367Z,68.20
2019-02-24T19:39:29.987Z,68.10
2019-02-24T19:42:18.821Z,68.30
2019-02-24T19:45:06.831Z,68.20
2019-02-24T19:47:55.507Z,68.20
2019-02-24T19:50:43.577Z,68.30
2019-02-24T19:53:32.111Z,68.30
2019-02-24T19:56:20.861Z,68.30
2019-02-24T19:59:09.573Z,68.40
2019-02-24T20:01:58.282Z,68.50
2019-02-24T20:04:48.396Z,68.50
2019-02-24T20:07:37.239Z,69.30
2019-02-24T20:10:25.246Z,68.60
2019-02-24T20:13:14.443Z,67.50
2019-02-24T20:16:02.798Z,68.60
2019-02-24T20:21:46.331Z,68.60
2019-02-24T20:24:35.877Z,68.50
2019-02-24T20:27:23.867Z,68.60
2019-02-24T20:33:07.211Z,68.30
2019-02-24T20:35:55.803Z,68.70
2019-02-24T20:41:36.198Z,68.70
2019-02-24T20:44:24.033Z,68.80
2019-02-24T20:47:12.313Z,68.80
2019-02-24T20:50:00.288Z,68.70
2019-02-24T20:52:49.083Z,68.80
2019-02-24T20:55:37.139Z,68.80
2019-02-24T20:58:25.977Z,68.70
2019-02-24T21:01:14.715Z,68.40
2019-02-24T21:04:03.105Z,68.70
2019-02-24T21:06:51.748Z,69.70
2019-02-24T21:09:39.721Z,68.90
2019-02-24T21:12:27.714Z,68.80
2019-02-24T21:15:15.673Z,68.70
2019-02-24T21:18:03.721Z,68.80
2019-02-24T21:20:52.415Z,68.90
2019-02-24T21:23:40.788Z,69.00
2019-02-24T21:26:29.692Z,68.90
2019-02-24T21:29:17.892Z,69.00
2019-02-24T21:32:05.745Z,69.10
2019-02-24T21:34:54.460Z,69.00
2019-02-24T21:37:42.343Z,69.10
2019-02-24T21:40:30.360Z,68.70
2019-02-24T21:43:18.850Z,68.90
2019-02-24T21:46:07.346Z,69.00
2019-02-24T21:48:55.475Z,68.50
2019-02-24T21:51:43.869Z,69.00
2019-02-24T21:54:32.325Z,69.00
2019-02-24T21:57:20.835Z,69.10
2019-02-24T22:00:09.360Z,69.10
2019-02-24T22:02:57.692Z,69.10
2019-02-24T22:05:45.457Z,69.30
2019-02-24T22:08:15.821Z,69.30
2019-02-24T22:11:05.264Z,69.30
2019-02-24T22:13:54.720Z,69.20
2019-02-24T22:16:42.473Z,69.30
2019-02-24T22:19:31.003Z,69.30
2019-02-24T22:22:18.738Z,69.20
2019-02-24T22:25:06.835Z,69.30
2019-02-24T22:30:41.942Z,69.70
2019-02-24T22:33:30.555Z,69.30
2019-02-24T22:36:18.389Z,69.20
2019-02-24T22:39:07.177Z,69.20
2019-02-24T22:41:54.882Z,69.00
2019-02-24T22:44:42.924Z,69.30
2019-02-24T22:47:30.618Z,69.40
2019-02-24T22:50:18.588Z,69.50
2019-02-24T22:53:06.768Z,69.30
2019-02-24T22:55:55.186Z,69.50
2019-02-24T22:58:43.596Z,69.60
2019-02-24T23:04:33.156Z,69.50
2019-02-24T23:07:21.170Z,69.40
2019-02-24T23:10:09.406Z,69.40
2019-02-24T23:12:57.530Z,69.50
2019-02-24T23:15:45.427Z,70.20
2019-02-24T23:18:33.951Z,69.40
2019-02-24T23:21:22.300Z,69.60
2019-02-24T23:24:10.783Z,69.50
2019-02-24T23:26:59.281Z,69.50
2019-02-24T23:29:47.649Z,69.60
2019-02-24T23:32:36.088Z,69.10
2019-02-24T23:35:24.481Z,69.40
2019-02-24T23:38:12.377Z,69.50
2019-02-24T23:41:00.689Z,69.50
2019-02-24T23:43:49.058Z,69.60
2019-02-24T23:46:36.921Z,69.50
2019-02-24T23:49:25.041Z,69.50
2019-02-24T23:52:13.153Z,69.70
2019-02-24T23:55:01.680Z,69.90
